Time;durP1;ratioP1;P1;durP2;ratioP2;P2;SDS_P1;SDS_P2;PMS_P1;PMS_P2;Temp;Humidity;BMP_temperature;BMP_pressure;BME280_temperature;BME280_humidity;BME280_pressure;Samples;Min_cycle;Max_cycle;Signal;HPM_P1;HPM_P2
2022/11/27 00:01:43;;;;;;;2.28;1.17;;;17.50;99.90;;;;;;7407162;19;20364;-44
2022/11/27 00:04:13;;;;;;;1.88;0.40;;;17.40;99.90;;;;;;7407906;19;20325;-44
2022/11/27 00:06:43;;;;;;;1.88;1.10;;;17.40;99.90;;;;;;7404717;19;20435;-44
2022/11/27 00:09:15;;;;;;;2.45;1.00;;;17.40;99.90;;;;;;7408059;19;20348;-44
2022/11/27 00:11:47;;;;;;;2.08;0.63;;;17.30;99.90;;;;;;7408628;19;19957;-44
2022/11/27 00:14:18;;;;;;;2.53;0.52;;;17.30;99.90;;;;;;7407807;19;19918;-46
2022/11/27 00:16:47;;;;;;;2.75;1.40;;;17.30;99.90;;;;;;7404520;19;19991;-44
2022/11/27 00:19:16;;;;;;;2.15;0.90;;;17.30;99.90;;;;;;7407770;19;19929;-45
2022/11/27 00:21:45;;;;;;;2.00;0.75;;;17.30;99.90;;;;;;7405892;19;20355;-43
2022/11/27 00:24:14;;;;;;;2.35;1.27;;;17.30;99.90;;;;;;7408067;19;19953;-44
2022/11/27 00:26:43;;;;;;;2.47;1.20;;;17.30;99.90;;;;;;7406866;19;19918;-44
2022/11/27 00:29:14;;;;;;;2.65;1.52;;;17.20;99.90;;;;;;7404386;19;19943;-44
2022/11/27 00:31:43;;;;;;;2.53;1.45;;;17.20;99.90;;;;;;7407089;19;19914;-45
2022/11/27 00:34:12;;;;;;;3.05;1.20;;;17.20;99.90;;;;;;7408185;19;20024;-46
2022/11/27 00:36:41;;;;;;;1.95;0.43;;;17.20;99.90;;;;;;7405922;19;20264;-44
2022/11/27 00:39:11;;;;;;;3.33;1.35;;;17.20;99.90;;;;;;7407261;19;20361;-45
2022/11/27 00:41:39;;;;;;;;;;;17.20;99.90;;;;;;7407757;19;19926;-44
2022/11/27 00:44:08;;;;;;;2.05;0.68;;;17.20;99.90;;;;;;7404119;19;19922;-46
2022/11/27 00:46:40;;;;;;;1.88;1.15;;;17.10;99.90;;;;;;7407252;19;19922;-44
2022/11/27 00:49:11;;;;;;;2.45;0.85;;;17.10;99.90;;;;;;7406200;19;19922;-44
2022/11/27 00:51:40;;;;;;;3.45;0.93;;;17.00;99.90;;;;;;7406731;19;19917;-44
2022/11/27 00:54:09;;;;;;;2.47;0.52;;;17.10;99.90;;;;;;7406260;19;19932;-46
2022/11/27 00:56:40;;;;;;;2.08;1.00;;;17.00;99.90;;;;;;7407268;19;19926;-44
2022/11/27 00:59:09;;;;;;;2.53;1.02;;;17.00;99.90;;;;;;7405351;19;19946;-45
2022/11/27 01:01:43;;;;;;;2.10;1.05;;;17.00;99.90;;;;;;7405068;19;20351;-45
2022/11/27 01:04:15;;;;;;;3.17;1.23;;;17.00;99.90;;;;;;7405508;19;20331;-44
2022/11/27 01:06:45;;;;;;;2.55;0.75;;;17.00;99.90;;;;;;7405332;19;20261;-44
2022/11/27 01:09:16;;;;;;;;;;;17.00;99.90;;;;;;7408492;19;19929;-45
2022/11/27 01:11:45;;;;;;;3.03;0.95;;;17.00;99.90;;;;;;7407061;19;19919;-46
2022/11/27 01:14:17;;;;;;;2.30;0.30;;;16.90;99.90;;;;;;7406095;19;21815;-44
2022/11/27 01:16:48;;;;;;;2.55;0.93;;;16.90;99.90;;;;;;7403086;19;20588;-47
2022/11/27 01:19:18;;;;;;;3.67;0.95;;;16.90;99.90;;;;;;7406885;19;20396;-44
2022/11/27 01:21:47;;;;;;;2.38;1.02;;;16.90;99.90;;;;;;7405288;19;19947;-47
2022/11/27 01:24:17;;;;;;;2.47;1.30;;;16.90;99.90;;;;;;7404899;19;19918;-45
2022/11/27 01:26:46;;;;;;;2.30;1.35;;;16.90;99.90;;;;;;7403380;19;19915;-48
2022/11/27 01:29:15;;;;;;;1.38;0.75;;;16.90;99.90;;;;;;7405904;19;20263;-48
2022/11/27 01:31:44;;;;;;;2.67;0.63;;;16.90;99.90;;;;;;7404891;19;19929;-46
2022/11/27 01:34:19;;;;;;;3.95;1.70;;;16.90;99.90;;;;;;7405301;19;19946;-42
2022/11/27 01:36:48;;;;;;;2.22;1.10;;;17.00;99.90;;;;;;7404144;19;19921;-45
2022/11/27 01:39:19;;;;;;;2.35;1.13;;;16.90;99.90;;;;;;7405674;19;19923;-45
2022/11/27 01:41:49;;;;;;;2.38;1.23;;;16.90;99.90;;;;;;7404565;19;20341;-43
2022/11/27 01:44:48;;;;;;;2.63;0.63;;;16.90;99.90;;;;;;7404854;19;20263;-45
2022/11/27 01:47:27;;;;;;;2.17;0.95;;;16.90;99.90;;;;;;7404756;19;19933;-47
2022/11/27 01:50:04;;;;;;;2.72;1.15;;;16.90;99.90;;;;;;7405996;19;19923;-44
2022/11/27 01:52:36;;;;;;;2.83;1.40;;;16.90;99.90;;;;;;7406776;19;19974;-45
2022/11/27 01:55:10;;;;;;;2.25;1.10;;;16.90;99.90;;;;;;7402665;19;19926;-43
2022/11/27 01:57:42;;;;;;;2.15;1.20;;;16.90;99.90;;;;;;7403661;19;19923;-44
2022/11/27 02:00:15;;;;;;;2.10;1.15;;;16.90;99.90;;;;;;7404654;19;19926;-44
2022/11/27 02:02:46;;;;;;;2.58;1.05;;;16.90;99.90;;;;;;7404127;19;19961;-44
2022/11/27 02:05:22;;;;;;;1.80;0.45;;;16.90;99.90;;;;;;7403217;19;19937;-45
2022/11/27 02:07:51;;;;;;;2.90;1.60;;;16.90;99.90;;;;;;7404139;19;19940;-46
2022/11/27 02:10:20;;;;;;;;;;;16.90;99.90;;;;;;7407578;19;19936;-43
2022/11/27 02:12:58;;;;;;;2.63;0.50;;;16.80;99.90;;;;;;7405334;19;19936;-44
2022/11/27 02:15:34;;;;;;;2.35;1.23;;;16.80;99.90;;;;;;7404383;19;19933;-47
2022/11/27 02:18:12;;;;;;;2.38;1.08;;;16.80;99.90;;;;;;7404284;19;19988;-44
2022/11/27 02:20:52;;;;;;;2.45;0.98;;;16.80;99.90;;;;;;7405598;19;19914;-43
2022/11/27 02:23:42;;;;;;;2.13;1.13;;;16.80;99.90;;;;;;7403988;19;19922;-44
2022/11/27 02:26:44;;;;;;;1.98;0.98;;;16.80;99.90;;;;;;7402045;19;19925;-43
2022/11/27 02:29:18;;;;;;;2.50;0.85;;;16.80;99.90;;;;;;7403838;19;19926;-45
2022/11/27 02:31:51;;;;;;;1.95;1.00;;;16.80;99.90;;;;;;7404017;19;19922;-45
2022/11/27 02:34:26;;;;;;;2.05;0.50;;;16.70;99.90;;;;;;7404527;19;19966;-43
2022/11/27 02:37:03;;;;;;;2.95;1.20;;;16.80;99.90;;;;;;7402256;19;19919;-44
2022/11/27 02:39:36;;;;;;;4.18;0.80;;;16.70;99.90;;;;;;7404226;19;19918;-52
2022/11/27 02:42:10;;;;;;;2.90;0.60;;;16.80;99.90;;;;;;7402094;19;20307;-45
2022/11/27 02:44:47;;;;;;;2.33;1.10;;;16.70;99.90;;;;;;7403003;19;19918;-44
2022/11/27 02:47:17;;;;;;;2.25;0.95;;;16.70;99.90;;;;;;7403932;19;19940;-43
2022/11/27 02:49:47;;;;;;;2.08;0.63;;;16.70;99.90;;;;;;7404500;19;20298;-47
2022/11/27 02:52:19;;;;;;;2.65;1.35;;;16.70;99.90;;;;;;7404862;19;19921;-44
2022/11/27 02:54:49;;;;;;;2.67;1.17;;;16.70;99.90;;;;;;7404233;19;19921;-44
2022/11/27 02:57:20;;;;;;;2.25;1.10;;;16.70;99.90;;;;;;7398292;19;20017;-48
2022/11/27 02:59:54;;;;;;;3.38;1.20;;;16.60;99.90;;;;;;7400554;19;19926;-46
2022/11/27 03:02:31;;;;;;;1.83;1.10;;;16.60;99.90;;;;;;7402239;19;19922;-44
2022/11/27 03:05:03;;;;;;;2.65;1.40;;;16.60;99.90;;;;;;7404273;19;19934;-44
2022/11/27 03:07:38;;;;;;;3.35;1.35;;;16.60;99.90;;;;;;7406031;19;19918;-44
2022/11/27 03:10:14;;;;;;;1.95;0.60;;;16.60;99.90;;;;;;7409795;19;19918;-43
2022/11/27 03:12:43;;;;;;;2.90;1.50;;;16.60;99.90;;;;;;7410642;19;19923;-44
2022/11/27 03:15:15;;;;;;;3.03;0.80;;;16.50;99.90;;;;;;7409895;19;19998;-44
2022/11/27 03:17:53;;;;;;;2.15;1.00;;;16.50;99.90;;;;;;7408556;19;19933;-47
2022/11/27 03:20:26;;;;;;;2.58;1.20;;;16.50;99.90;;;;;;7407967;19;19919;-45
2022/11/27 03:22:56;;;;;;;2.95;0.65;;;16.50;99.90;;;;;;7408928;19;19918;-43
2022/11/27 03:25:26;;;;;;;1.88;1.00;;;16.50;99.90;;;;;;7410740;19;19922;-43
2022/11/27 03:28:00;;;;;;;2.50;0.82;;;16.50;99.90;;;;;;7407204;19;19923;-45
2022/11/27 03:30:31;;;;;;;2.55;1.08;;;16.50;99.90;;;;;;7409030;19;19921;-43
2022/11/27 03:33:00;;;;;;;2.28;0.70;;;16.50;99.90;;;;;;7409411;19;19922;-48
2022/11/27 03:35:30;;;;;;;3.63;1.20;;;16.40;99.90;;;;;;7410207;19;19930;-45
2022/11/27 03:37:59;;;;;;;;;;;16.40;99.90;;;;;;7411810;19;19985;-45
2022/11/27 03:40:35;;;;;;;2.55;0.63;;;16.40;99.90;;;;;;7409616;19;20014;-43
2022/11/27 03:43:06;;;;;;;;;;;16.40;99.90;;;;;;7408854;19;19914;-45
2022/11/27 03:45:45;;;;;;;1.88;0.95;;;16.40;99.90;;;;;;7407601;19;19938;-44
2022/11/27 03:48:24;;;;;;;2.15;1.10;;;16.40;99.90;;;;;;7408870;19;19929;-44
2022/11/27 03:51:06;;;;;;;2.67;1.02;;;16.40;99.90;;;;;;7407389;19;19930;-44
2022/11/27 03:53:39;;;;;;;;;;;16.40;99.90;;;;;;7411676;19;20360;-47
2022/11/27 03:56:13;;;;;;;2.33;1.00;;;16.30;99.90;;;;;;7408084;19;19923;-46
2022/11/27 03:58:48;;;;;;;2.10;1.17;;;16.30;99.90;;;;;;7407146;19;19922;-44
2022/11/27 04:01:22;;;;;;;2.38;1.08;;;16.30;99.90;;;;;;7406376;19;19926;-46
2022/11/27 04:03:51;;;;;;;1.77;0.95;;;16.30;99.90;;;;;;7406821;19;19922;-44
2022/11/27 04:06:20;;;;;;;2.50;0.57;;;16.30;99.90;;;;;;7405673;19;19919;-44
2022/11/27 04:08:50;;;;;;;2.30;1.30;;;16.30;99.90;;;;;;7407515;19;20344;-44
2022/11/27 04:11:19;;;;;;;1.85;0.90;;;16.30;99.90;;;;;;7406669;19;19922;-45
2022/11/27 04:13:48;;;;;;;2.15;0.40;;;16.30;99.90;;;;;;7407537;19;19922;-44
2022/11/27 04:16:19;;;;;;;2.15;0.50;;;16.30;99.90;;;;;;7407369;19;19966;-44
2022/11/27 04:18:48;;;;;;;1.60;0.32;;;16.30;99.90;;;;;;7407806;19;20278;-44
2022/11/27 04:21:17;;;;;;;1.60;0.50;;;16.30;99.90;;;;;;7404785;19;19915;-43
2022/11/27 04:23:46;;;;;;;3.80;1.08;;;16.20;99.90;;;;;;7406242;19;20369;-44
2022/11/27 04:26:15;;;;;;;2.30;1.02;;;16.30;99.90;;;;;;7407065;19;19938;-44
2022/11/27 04:28:44;;;;;;;2.20;1.00;;;16.30;99.90;;;;;;7406155;19;19922;-43
2022/11/27 04:31:13;;;;;;;2.45;1.05;;;16.20;99.90;;;;;;7407178;19;19914;-44
2022/11/27 04:33:45;;;;;;;2.22;0.98;;;16.20;99.90;;;;;;7405551;19;19919;-48
2022/11/27 04:36:13;;;;;;;2.15;0.52;;;16.20;99.90;;;;;;7406497;19;19918;-42
2022/11/27 04:38:42;;;;;;;3.08;1.40;;;16.20;99.90;;;;;;7408431;19;19915;-46
2022/11/27 04:41:11;;;;;;;3.30;0.70;;;16.20;99.90;;;;;;7405633;19;20264;-47
2022/11/27 04:43:40;;;;;;;3.05;1.15;;;16.20;99.90;;;;;;7404986;19;20343;-46
2022/11/27 04:46:09;;;;;;;1.80;0.40;;;16.20;99.90;;;;;;7407702;19;19914;-43
2022/11/27 04:48:38;;;;;;;2.45;1.02;;;16.20;99.90;;;;;;7407013;19;19984;-47
2022/11/27 04:51:09;;;;;;;2.08;0.50;;;16.20;99.90;;;;;;7406444;19;20412;-44
2022/11/27 04:53:38;;;;;;;2.03;1.08;;;16.20;99.90;;;;;;7406918;19;19929;-47
2022/11/27 04:56:08;;;;;;;2.03;0.77;;;16.20;99.90;;;;;;7404958;19;20272;-45
2022/11/27 04:58:36;;;;;;;3.17;1.13;;;16.20;99.90;;;;;;7406750;19;19942;-45
2022/11/27 05:01:05;;;;;;;2.08;0.50;;;16.20;99.90;;;;;;7407649;19;20341;-45
2022/11/27 05:03:34;;;;;;;2.17;1.10;;;16.20;99.90;;;;;;7406069;19;19925;-47
2022/11/27 05:06:03;;;;;;;1.98;0.93;;;16.20;99.90;;;;;;7404841;19;19919;-48
2022/11/27 05:08:35;;;;;;;2.70;1.45;;;16.10;99.90;;;;;;7404748;19;19922;-44
2022/11/27 05:11:07;;;;;;;2.75;1.05;;;16.10;99.90;;;;;;7405545;19;19911;-45
2022/11/27 05:13:36;;;;;;;2.03;0.75;;;16.10;99.90;;;;;;7405802;19;19978;-48
2022/11/27 05:16:06;;;;;;;2.35;0.70;;;16.10;99.90;;;;;;7404253;19;19929;-47
2022/11/27 05:18:36;;;;;;;2.78;0.90;;;16.10;99.90;;;;;;7406226;19;19933;-47
2022/11/27 05:21:07;;;;;;;2.38;0.30;;;16.10;99.90;;;;;;7403550;19;19911;-45
2022/11/27 05:23:38;;;;;;;2.13;1.00;;;16.10;99.90;;;;;;7389002;19;19926;-44
2022/11/27 05:26:07;;;;;;;2.33;0.85;;;16.10;99.90;;;;;;7389361;19;19930;-44
2022/11/27 05:28:36;;;;;;;1.80;0.85;;;16.10;99.90;;;;;;7403503;19;20368;-45
2022/11/27 05:31:05;;;;;;;3.38;1.08;;;16.10;99.90;;;;;;7405909;19;19914;-44
2022/11/27 05:33:34;;;;;;;1.60;0.38;;;16.20;99.90;;;;;;7407014;19;19930;-45
2022/11/27 05:36:03;;;;;;;1.80;0.38;;;16.10;99.90;;;;;;7403808;19;19915;-44
2022/11/27 05:38:32;;;;;;;2.28;1.10;;;16.10;99.90;;;;;;7404614;19;19915;-45
2022/11/27 05:41:03;;;;;;;1.65;0.30;;;16.10;99.90;;;;;;7404919;19;19937;-47
2022/11/27 05:43:32;;;;;;;3.25;1.15;;;16.10;99.90;;;;;;7405787;19;19922;-45
2022/11/27 05:46:06;;;;;;;1.52;0.40;;;16.10;99.90;;;;;;7406080;19;19922;-46
2022/11/27 05:48:35;;;;;;;2.90;1.10;;;16.10;99.90;;;;;;7403910;19;19918;-45
2022/11/27 05:51:04;;;;;;;2.30;0.93;;;16.10;99.90;;;;;;7405604;19;20015;-44
2022/11/27 05:53:35;;;;;;;2.22;1.27;;;16.10;99.90;;;;;;7405747;19;19929;-44
2022/11/27 05:56:09;;;;;;;2.53;1.13;;;16.10;99.90;;;;;;7402836;19;19934;-43
2022/11/27 05:58:39;;;;;;;2.35;0.63;;;16.10;99.90;;;;;;7403683;19;20269;-45
2022/11/27 06:01:09;;;;;;;2.30;0.85;;;16.10;99.90;;;;;;7404059;19;19914;-44
2022/11/27 06:03:39;;;;;;;2.45;1.10;;;16.10;99.90;;;;;;7404855;19;19986;-45
2022/11/27 06:06:09;;;;;;;3.13;0.65;;;16.10;99.90;;;;;;7404101;19;19918;-48
2022/11/27 06:08:39;;;;;;;1.95;0.80;;;16.10;99.90;;;;;;7405139;19;19982;-45
2022/11/27 06:11:13;;;;;;;1.30;0.60;;;16.10;99.90;;;;;;7404258;19;19966;-44
2022/11/27 06:13:45;;;;;;;1.38;0.98;;;16.10;99.90;;;;;;7406616;19;19922;-45
2022/11/27 06:16:15;;;;;;;;;;;16.10;99.90;;;;;;7407491;19;19943;-45
2022/11/27 06:18:44;;;;;;;1.98;0.90;;;16.10;99.90;;;;;;7404274;19;19950;-46
2022/11/27 06:21:15;;;;;;;1.67;0.80;;;16.10;99.90;;;;;;7404028;19;19915;-44
2022/11/27 06:23:45;;;;;;;2.78;0.63;;;16.10;99.90;;;;;;7403323;19;19919;-47
2022/11/27 06:26:20;;;;;;;2.47;0.65;;;16.10;99.90;;;;;;7404159;19;20337;-45
2022/11/27 06:28:50;;;;;;;2.30;0.82;;;16.10;99.90;;;;;;7403651;19;19918;-44
2022/11/27 06:31:21;;;;;;;2.58;1.30;;;16.10;99.90;;;;;;7403797;19;19951;-45
2022/11/27 06:33:52;;;;;;;1.50;0.82;;;16.00;99.90;;;;;;7403529;19;19967;-43
2022/11/27 06:36:21;;;;;;;1.63;0.40;;;16.00;99.90;;;;;;7403264;19;19923;-45
2022/11/27 06:38:50;;;;;;;2.47;1.02;;;16.00;99.90;;;;;;7403260;19;19918;-44
2022/11/27 06:41:23;;;;;;;1.88;0.95;;;16.00;99.90;;;;;;7400269;19;19926;-43
2022/11/27 06:43:52;;;;;;;2.13;0.88;;;16.00;99.90;;;;;;7403124;19;20625;-46
2022/11/27 06:46:23;;;;;;;1.73;0.43;;;16.00;99.90;;;;;;7404844;19;20413;-44
2022/11/27 06:48:54;;;;;;;1.55;0.75;;;16.00;99.90;;;;;;7401150;19;19918;-43
2022/11/27 06:51:25;;;;;;;2.60;1.00;;;16.00;99.90;;;;;;7402169;19;19922;-47
2022/11/27 06:53:55;;;;;;;2.30;0.63;;;16.00;99.90;;;;;;7403076;19;19982;-44
2022/11/27 06:56:28;;;;;;;2.03;1.02;;;16.00;99.90;;;;;;7400459;19;19918;-47
2022/11/27 06:58:59;;;;;;;1.88;0.85;;;16.00;99.90;;;;;;7404700;19;19922;-47
2022/11/27 07:01:30;;;;;;;1.95;0.85;;;16.00;99.90;;;;;;7399447;19;20337;-46
2022/11/27 07:03:59;;;;;;;1.42;0.90;;;16.00;99.90;;;;;;7398864;19;19922;-44
2022/11/27 07:06:29;;;;;;;1.58;0.43;;;16.00;99.90;;;;;;7400877;19;19918;-45
2022/11/27 07:08:58;;;;;;;;;;;16.00;99.90;;;;;;7404182;19;19922;-48
2022/11/27 07:11:31;;;;;;;1.75;0.80;;;16.00;99.90;;;;;;7402941;19;19922;-47
2022/11/27 07:14:01;;;;;;;2.03;0.57;;;16.00;99.90;;;;;;7402179;19;20286;-48
2022/11/27 07:16:33;;;;;;;1.70;0.85;;;15.90;99.90;;;;;;7400002;19;19918;-46
2022/11/27 07:19:04;;;;;;;1.65;0.80;;;15.90;99.90;;;;;;7402591;19;19918;-45
2022/11/27 07:21:33;;;;;;;1.88;0.90;;;15.90;99.90;;;;;;7399978;19;19923;-43
2022/11/27 07:24:03;;;;;;;1.65;0.90;;;15.90;99.90;;;;;;7397550;19;19922;-46
2022/11/27 07:26:34;;;;;;;1.95;1.15;;;15.90;99.90;;;;;;7401451;19;19918;-44
2022/11/27 07:29:03;;;;;;;2.00;0.98;;;15.90;99.90;;;;;;7401651;19;20850;-44
2022/11/27 07:31:32;;;;;;;1.60;0.88;;;15.90;99.90;;;;;;7401927;19;20348;-44
2022/11/27 07:34:01;;;;;;;1.85;0.90;;;15.90;99.90;;;;;;7402378;19;19922;-45
2022/11/27 07:36:32;;;;;;;1.45;0.70;;;15.90;99.90;;;;;;7400173;19;20333;-44
2022/11/27 07:39:00;;;;;;;1.95;1.08;;;15.90;99.90;;;;;;7402435;19;19919;-43
2022/11/27 07:41:29;;;;;;;3.65;1.92;;;15.90;99.90;;;;;;7398900;19;19925;-43
2022/11/27 07:44:01;;;;;;;1.95;0.95;;;15.90;99.90;;;;;;7399598;19;19929;-45
2022/11/27 07:46:30;;;;;;;2.17;0.82;;;15.90;99.90;;;;;;7400653;19;19926;-48
2022/11/27 07:48:59;;;;;;;2.25;0.30;;;15.90;99.90;;;;;;7401753;19;20962;-47
2022/11/27 07:51:28;;;;;;;1.58;0.70;;;15.90;99.90;;;;;;7401385;19;19930;-45
2022/11/27 07:53:57;;;;;;;1.80;0.90;;;15.90;99.90;;;;;;7408110;19;19923;-43
2022/11/27 07:56:26;;;;;;;1.70;0.38;;;15.90;99.90;;;;;;7409547;19;19958;-44
2022/11/27 07:58:55;;;;;;;2.03;0.90;;;15.90;99.90;;;;;;7407160;19;19918;-44
2022/11/27 08:01:26;;;;;;;2.22;0.50;;;15.80;99.90;;;;;;7408063;19;19925;-45
2022/11/27 08:03:55;;;;;;;1.88;0.43;;;15.80;99.90;;;;;;7407987;19;19919;-47
2022/11/27 08:06:26;;;;;;;2.55;0.30;;;15.80;99.90;;;;;;7408849;19;20255;-48
2022/11/27 08:08:56;;;;;;;1.73;0.88;;;15.80;99.90;;;;;;7407302;19;19922;-46
2022/11/27 08:11:28;;;;;;;1.70;0.95;;;15.80;99.90;;;;;;7408076;19;19923;-47
2022/11/27 08:13:59;;;;;;;1.65;0.90;;;15.80;99.90;;;;;;7408146;19;19923;-47
2022/11/27 08:16:32;;;;;;;1.88;0.45;;;15.80;99.90;;;;;;7407123;19;20311;-47
2022/11/27 08:19:01;;;;;;;1.80;1.02;;;15.80;99.90;;;;;;7406567;19;19985;-46
2022/11/27 08:21:30;;;;;;;1.60;0.22;;;15.80;99.90;;;;;;7405050;19;19934;-48
2022/11/27 08:24:00;;;;;;;2.17;0.40;;;15.80;99.90;;;;;;7405155;19;19918;-46
2022/11/27 08:26:29;;;;;;;1.50;0.65;;;15.80;99.90;;;;;;7409074;19;19926;-43
2022/11/27 08:28:59;;;;;;;1.33;0.77;;;15.80;99.90;;;;;;7406431;19;19933;-44
2022/11/27 08:31:27;;;;;;;;;;;15.80;99.90;;;;;;7409052;19;19926;-43
2022/11/27 08:33:59;;;;;;;1.98;0.40;;;15.80;99.90;;;;;;7405787;19;19927;-45
2022/11/27 08:36:28;;;;;;;2.13;0.65;;;15.80;99.90;;;;;;7406545;19;19926;-44
2022/11/27 08:38:57;;;;;;;2.63;0.90;;;15.80;99.90;;;;;;7406862;19;19925;-45
2022/11/27 08:41:26;;;;;;;1.40;0.52;;;15.80;99.90;;;;;;7405996;19;20007;-45
2022/11/27 08:43:55;;;;;;;1.48;0.45;;;15.80;99.90;;;;;;7406577;19;19922;-44
2022/11/27 08:46:24;;;;;;;1.70;0.57;;;15.80;99.90;;;;;;7406527;19;19963;-44
2022/11/27 08:48:53;;;;;;;1.38;0.38;;;15.80;99.90;;;;;;7405974;19;20265;-44
2022/11/27 08:51:24;;;;;;;2.67;1.00;;;15.80;99.90;;;;;;7404179;19;19933;-44
2022/11/27 08:53:54;;;;;;;1.45;0.70;;;15.80;99.90;;;;;;7406640;19;19937;-45
2022/11/27 08:56:26;;;;;;;1.77;0.32;;;15.80;99.90;;;;;;7405202;19;20295;-43
2022/11/27 08:58:56;;;;;;;1.40;0.63;;;15.80;99.90;;;;;;7406735;19;19918;-46
2022/11/27 09:01:27;;;;;;;1.60;0.68;;;15.80;99.90;;;;;;7401425;19;19926;-44
2022/11/27 09:03:56;;;;;;;2.10;1.02;;;15.80;99.90;;;;;;7403354;19;19982;-44
2022/11/27 09:06:31;;;;;;;1.63;0.82;;;15.80;99.90;;;;;;7406952;19;19930;-43
2022/11/27 09:09:01;;;;;;;1.92;0.43;;;15.70;99.90;;;;;;7403168;19;19925;-44
2022/11/27 09:11:31;;;;;;;1.80;0.73;;;15.70;99.90;;;;;;7406934;19;19925;-44
2022/11/27 09:14:01;;;;;;;1.90;0.77;;;15.80;99.90;;;;;;7379909;19;19929;-45
2022/11/27 09:16:30;;;;;;;1.77;0.85;;;15.80;99.90;;;;;;7404562;19;19940;-45
2022/11/27 09:18:59;;;;;;;1.92;1.10;;;15.80;99.90;;;;;;7402944;19;19925;-45
2022/11/27 09:21:32;;;;;;;1.80;1.45;;;15.80;99.90;;;;;;7407561;19;19997;-43
2022/11/27 09:24:02;;;;;;;2.00;0.75;;;15.80;99.90;;;;;;7405209;19;19919;-44
2022/11/27 09:26:32;;;;;;;1.25;0.47;;;15.90;99.90;;;;;;7405643;19;19926;-46
2022/11/27 09:29:01;;;;;;;1.33;1.02;;;16.00;99.90;;;;;;7406081;19;19919;-44
2022/11/27 09:31:30;;;;;;;1.63;0.30;;;16.20;99.90;;;;;;7405361;19;19943;-44
2022/11/27 09:34:00;;;;;;;2.25;0.90;;;16.40;99.90;;;;;;7403472;19;19922;-45
2022/11/27 09:36:31;;;;;;;1.90;0.73;;;16.70;99.90;;;;;;7404661;19;19918;-44
2022/11/27 09:39:02;;;;;;;1.60;0.77;;;16.90;99.90;;;;;;7405541;19;19922;-45
2022/11/27 09:41:42;;;;;;;1.25;0.80;;;17.10;99.90;;;;;;7406364;19;19930;-42
2022/11/27 09:44:26;;;;;;;1.52;1.15;;;17.20;99.90;;;;;;7404211;19;20340;-45
2022/11/27 09:46:56;;;;;;;1.77;0.85;;;17.40;99.90;;;;;;7404945;19;20016;-44
2022/11/27 09:49:30;;;;;;;1.88;0.85;;;17.50;99.90;;;;;;7405155;19;19914;-44
2022/11/27 09:52:06;;;;;;;1.60;0.45;;;17.60;99.90;;;;;;7400631;19;20271;-43
2022/11/27 09:54:40;;;;;;;2.25;0.88;;;17.70;99.90;;;;;;7404701;19;19922;-47
2022/11/27 09:57:15;;;;;;;1.25;0.60;;;17.80;99.90;;;;;;7403002;19;19928;-44
2022/11/27 09:59:50;;;;;;;1.52;0.80;;;17.90;99.80;;;;;;7402286;19;19943;-45
2022/11/27 10:02:23;;;;;;;1.20;0.50;;;18.00;99.70;;;;;;7404221;19;19925;-46
2022/11/27 10:04:52;;;;;;;1.33;0.40;;;18.10;99.60;;;;;;7405540;19;19914;-43
2022/11/27 10:07:34;;;;;;;1.17;0.75;;;18.20;99.60;;;;;;7405605;19;19929;-45
2022/11/27 10:10:17;;;;;;;1.60;0.60;;;18.30;99.50;;;;;;7402519;19;19915;-48
2022/11/27 10:12:58;;;;;;;1.85;0.20;;;18.40;99.50;;;;;;7403373;19;20254;-47
2022/11/27 10:15:38;;;;;;;1.48;0.80;;;18.40;99.40;;;;;;7404326;19;19928;-49
2022/11/27 10:18:13;;;;;;;2.10;0.82;;;18.50;99.40;;;;;;7401330;19;19922;-43
2022/11/27 10:20:46;;;;;;;1.55;0.30;;;18.50;99.30;;;;;;7404447;19;20351;-44
2022/11/27 10:23:26;;;;;;;1.65;0.90;;;18.60;99.30;;;;;;7400229;19;19930;-44
2022/11/27 10:26:01;;;;;;;1.83;0.93;;;18.60;99.30;;;;;;7401478;19;19923;-45
2022/11/27 10:28:36;;;;;;;1.10;0.30;;;18.70;99.20;;;;;;7399976;19;19922;-46
2022/11/27 10:31:13;;;;;;;1.23;0.30;;;18.70;99.20;;;;;;7403922;19;19928;-45
2022/11/27 10:33:46;;;;;;;2.05;0.65;;;18.80;99.20;;;;;;7404057;19;19922;-44
2022/11/27 10:36:19;;;;;;;1.05;0.35;;;18.80;99.50;;;;;;7402164;19;19927;-44
2022/11/27 10:38:51;;;;;;;1.55;0.70;;;18.90;99.20;;;;;;7404500;19;19915;-43
2022/11/27 10:41:26;;;;;;;1.88;0.60;;;18.90;99.10;;;;;;7404192;19;19934;-45
2022/11/27 10:43:57;;;;;;;1.40;1.00;;;18.90;99.10;;;;;;7403322;19;19937;-44
2022/11/27 10:46:29;;;;;;;1.75;0.80;;;18.90;99.10;;;;;;7400551;19;19941;-43
2022/11/27 10:48:59;;;;;;;1.42;0.22;;;18.90;99.10;;;;;;7401293;19;19919;-44
2022/11/27 10:51:32;;;;;;;;;;;19.00;99.00;;;;;;7401423;19;19918;-44
2022/11/27 10:54:08;;;;;;;1.60;0.22;;;19.10;98.90;;;;;;7400441;19;19914;-44
2022/11/27 10:56:48;;;;;;;1.73;0.80;;;19.10;99.00;;;;;;7401398;19;19941;-44
2022/11/27 10:59:20;;;;;;;1.25;0.82;;;19.10;99.00;;;;;;7404208;19;20478;-44
2022/11/27 11:01:52;;;;;;;1.23;0.30;;;19.20;98.90;;;;;;7402848;19;19922;-45
2022/11/27 11:04:24;;;;;;;1.02;0.22;;;19.20;98.90;;;;;;7403409;19;19927;-46
2022/11/27 11:06:53;;;;;;;1.10;0.40;;;19.20;98.90;;;;;;7402479;19;19929;-44
2022/11/27 11:09:28;;;;;;;1.23;0.32;;;19.20;99.00;;;;;;7402008;19;19918;-45
2022/11/27 11:12:09;;;;;;;1.20;0.50;;;19.30;98.90;;;;;;7403677;19;19926;-43
2022/11/27 11:14:38;;;;;;;1.50;0.25;;;19.30;98.80;;;;;;7401350;19;19942;-44
2022/11/27 11:17:18;;;;;;;1.65;0.40;;;19.40;99.00;;;;;;7399771;19;20260;-45
2022/11/27 11:19:47;;;;;;;2.08;1.58;;;19.40;98.90;;;;;;7401255;19;19915;-45
2022/11/27 11:22:18;;;;;;;1.30;0.20;;;19.30;99.00;;;;;;7401035;19;19923;-50
2022/11/27 11:24:51;;;;;;;1.50;0.60;;;19.40;98.90;;;;;;7400138;19;19922;-48
2022/11/27 11:27:24;;;;;;;1.85;0.30;;;19.50;99.00;;;;;;7398737;19;19919;-51
2022/11/27 11:29:54;;;;;;;1.88;0.88;;;19.50;99.00;;;;;;7407350;19;19998;-43
2022/11/27 11:32:27;;;;;;;2.28;0.68;;;19.60;99.00;;;;;;7409572;19;19922;-46
2022/11/27 11:35:00;;;;;;;2.03;0.20;;;19.60;99.00;;;;;;7408273;19;19922;-44
2022/11/27 11:37:31;;;;;;;1.42;0.70;;;19.70;99.00;;;;;;7408183;19;19915;-44
2022/11/27 11:40:05;;;;;;;2.65;0.70;;;19.60;99.00;;;;;;7407091;19;20016;-41
2022/11/27 11:42:37;;;;;;;2.58;0.90;;;19.60;99.00;;;;;;7409990;19;19926;-42
2022/11/27 11:45:17;;;;;;;1.50;0.57;;;19.60;99.10;;;;;;7407772;19;19953;-43
2022/11/27 11:47:47;;;;;;;1.90;1.10;;;19.60;99.00;;;;;;7406813;19;19914;-50
2022/11/27 11:50:25;;;;;;;1.27;0.20;;;19.60;99.10;;;;;;7406902;19;19923;-51
2022/11/27 11:53:00;;;;;;;1.38;0.30;;;19.70;99.10;;;;;;7406911;19;19929;-42
2022/11/27 11:55:40;;;;;;;1.65;0.88;;;19.70;99.20;;;;;;7404685;19;19946;-42
2022/11/27 11:58:28;;;;;;;1.77;0.32;;;19.70;99.10;;;;;;7406633;19;20547;-43
2022/11/27 12:01:03;;;;;;;1.52;0.57;;;19.70;99.10;;;;;;7404256;19;19929;-42
2022/11/27 12:03:42;;;;;;;1.73;0.22;;;19.70;99.10;;;;;;7406874;19;20283;-44
2022/11/27 12:06:34;;;;;;;4.30;0.60;;;19.70;99.10;;;;;;7404526;19;19933;-42
2022/11/27 12:09:19;;;;;;;1.38;0.60;;;19.70;99.10;;;;;;7406208;19;19925;-42
2022/11/27 12:11:56;;;;;;;2.00;0.77;;;19.70;99.30;;;;;;7407016;19;20355;-44
2022/11/27 12:14:38;;;;;;;2.15;0.82;;;19.80;99.10;;;;;;7405801;19;19918;-47
2022/11/27 12:17:29;;;;;;;1.42;0.57;;;19.80;99.10;;;;;;7402555;19;19918;-50
2022/11/27 12:20:19;;;;;;;1.30;0.80;;;19.90;99.10;;;;;;7378915;19;19926;-48
2022/11/27 12:23:27;;;;;;;2.50;0.15;;;19.90;99.20;;;;;;7383853;19;19922;-47
2022/11/27 12:26:03;;;;;;;2.50;0.60;;;19.90;98.90;;;;;;7383298;19;20017;-49
2022/11/27 12:29:00;;;;;;;2.38;0.20;;;20.00;99.00;;;;;;7382637;19;19922;-47
2022/11/27 12:31:47;;;;;;;1.38;0.20;;;20.00;98.90;;;;;;7384453;19;19929;-46
2022/11/27 12:34:25;;;;;;;1.77;0.65;;;20.10;98.90;;;;;;7382494;19;20002;-50
2022/11/27 12:37:10;;;;;;;1.88;0.22;;;20.10;98.90;;;;;;7383345;19;19957;-50
2022/11/27 12:39:55;;;;;;;4.20;0.93;;;20.10;98.90;;;;;;7387104;19;19929;-47
2022/11/27 12:42:29;;;;;;;1.40;0.30;;;20.10;98.90;;;;;;7403032;19;19922;-46
2022/11/27 12:45:07;;;;;;;3.53;0.80;;;20.10;99.00;;;;;;7405047;19;19926;-44
2022/11/27 12:47:43;;;;;;;2.88;1.02;;;20.10;98.90;;;;;;7404836;19;19922;-46
2022/11/27 12:50:19;;;;;;;1.80;0.20;;;20.20;99.00;;;;;;7406282;19;20312;-45
2022/11/27 12:52:55;;;;;;;10.20;0.98;;;20.20;99.10;;;;;;7402602;19;20605;-45
2022/11/27 12:55:30;;;;;;;6.70;0.38;;;20.20;99.10;;;;;;7405509;19;20275;-45
2022/11/27 12:58:03;;;;;;;5.57;0.98;;;20.20;99.10;;;;;;7404913;19;20635;-44
2022/11/27 13:00:41;;;;;;;1.88;0.43;;;20.20;99.00;;;;;;7400299;19;20270;-44
2022/11/27 13:03:17;;;;;;;2.53;0.80;;;20.20;99.00;;;;;;7404742;19;19996;-45
2022/11/27 13:05:50;;;;;;;3.03;0.75;;;20.10;99.00;;;;;;7404402;19;19943;-44
2022/11/27 13:08:25;;;;;;;2.20;0.20;;;20.10;99.10;;;;;;7405358;19;20387;-43
2022/11/27 13:10:58;;;;;;;4.30;0.75;;;19.90;99.10;;;;;;7401910;19;20393;-44
2022/11/27 13:13:32;;;;;;;1.98;0.20;;;19.80;99.20;;;;;;7404134;19;19910;-44
2022/11/27 13:16:08;;;;;;;3.67;1.05;;;19.70;99.40;;;;;;7403595;19;19919;-44
2022/11/27 13:18:41;;;;;;;6.03;0.47;;;19.70;99.40;;;;;;7404571;19;19974;-41